createdAt,value
2022-11-05T00:00:33.345Z,10.25
2022-11-05T00:05:54.703Z,9.70
2022-11-05T00:10:57.456Z,8.55
2022-11-05T00:16:18.799Z,10.43
2022-11-05T00:21:39.919Z,10.88
2022-11-05T00:26:42.604Z,10.10
2022-11-05T00:31:45.270Z,8.52
2022-11-05T00:36:47.913Z,10.48
2022-11-05T00:42:10.618Z,9.88
2022-11-05T00:47:31.947Z,10.52
2022-11-05T00:52:53.141Z,9.98
2022-11-05T00:57:56.647Z,9.35
2022-11-05T01:03:00.902Z,10.35
2022-11-05T01:08:03.660Z,9.18
2022-11-05T01:13:11.648Z,10.45
2022-11-05T01:18:15.588Z,9.40
2022-11-05T01:23:18.774Z,9.80
2022-11-05T01:28:21.803Z,8.75
2022-11-05T01:33:25.254Z,9.68
2022-11-05T01:38:27.873Z,9.45
2022-11-05T01:43:55.354Z,9.45
2022-11-05T01:49:06.235Z,9.18
2022-11-05T01:54:10.905Z,7.70
2022-11-05T01:59:26.899Z,8.25
2022-11-05T02:04:36.031Z,7.78
2022-11-05T02:09:49.849Z,7.78
2022-11-05T02:14:52.511Z,7.90
2022-11-05T02:20:04.295Z,7.65
2022-11-05T02:25:25.527Z,6.85
2022-11-05T02:31:04.935Z,7.85
2022-11-05T02:36:10.651Z,8.35
2022-11-05T02:41:23.691Z,8.38
2022-11-05T02:46:51.855Z,6.75
2022-11-05T02:51:58.633Z,6.28
2022-11-05T02:57:03.419Z,7.20
2022-11-05T03:02:06.680Z,6.20
2022-11-05T03:07:28.100Z,5.22
2022-11-05T03:12:57.502Z,5.38
2022-11-05T03:18:28.763Z,5.07
2022-11-05T03:23:52.782Z,5.60
2022-11-05T03:29:07.002Z,5.10
2022-11-05T03:34:12.260Z,4.93
2022-11-05T03:39:19.201Z,4.85
2022-11-05T03:44:26.700Z,5.20
2022-11-05T03:49:41.951Z,4.50
2022-11-05T03:54:44.985Z,4.28
2022-11-05T03:59:50.637Z,4.10
2022-11-05T04:04:53.948Z,3.28
2022-11-05T04:10:15.523Z,3.83
2022-11-05T04:15:18.456Z,3.40
2022-11-05T04:20:39.686Z,3.08
2022-11-05T04:25:42.357Z,3.10
2022-11-05T04:30:45.196Z,3.75
2022-11-05T04:35:49.217Z,2.97
2022-11-05T04:40:51.858Z,2.70
2022-11-05T04:45:54.543Z,3.50
2022-11-05T04:50:57.234Z,2.88
2022-11-05T04:56:15.946Z,2.92
2022-11-05T05:01:23.452Z,3.00
2022-11-05T05:06:26.372Z,3.08
2022-11-05T05:11:29.254Z,3.20
2022-11-05T05:16:31.906Z,2.75
2022-11-05T05:21:40.783Z,3.13
2022-11-05T05:26:46.786Z,2.88
2022-11-05T05:31:49.480Z,2.00
2022-11-05T05:36:52.157Z,2.00
2022-11-05T05:41:54.841Z,2.60
2022-11-05T05:46:57.565Z,2.22
2022-11-05T05:52:00.327Z,2.58
2022-11-05T05:57:03.509Z,2.40
2022-11-05T06:02:06.816Z,2.10
2022-11-05T06:07:09.678Z,2.40
2022-11-05T06:12:12.897Z,2.20
2022-11-05T06:17:15.608Z,2.60
2022-11-05T06:22:18.199Z,2.70
2022-11-05T06:27:20.937Z,3.17
2022-11-05T06:32:23.645Z,2.85
2022-11-05T06:37:28.178Z,4.03
2022-11-05T06:42:30.885Z,2.50
2022-11-05T06:47:33.578Z,2.83
2022-11-05T06:52:40.901Z,3.35
2022-11-05T06:57:43.927Z,3.00
2022-11-05T07:02:47.243Z,2.67
2022-11-05T07:07:50.162Z,3.15
2022-11-05T07:12:52.859Z,3.08
2022-11-05T07:17:59.858Z,2.97
2022-11-05T07:23:04.220Z,3.22
2022-11-05T07:28:07.440Z,4.50
2022-11-05T07:33:10.635Z,3.22
2022-11-05T07:38:13.602Z,4.78
2022-11-05T07:43:16.437Z,3.10
2022-11-05T07:48:19.250Z,4.20
2022-11-05T07:53:21.906Z,3.65
2022-11-05T07:58:24.586Z,3.45
2022-11-05T08:03:27.447Z,3.78
2022-11-05T08:08:30.325Z,4.78
2022-11-05T08:13:33.586Z,4.90
2022-11-05T08:18:36.335Z,5.57
2022-11-05T08:23:39.749Z,5.72
2022-11-05T08:28:42.455Z,4.53
2022-11-05T08:33:45.327Z,4.57
2022-11-05T08:38:47.985Z,4.40
2022-11-05T08:43:50.629Z,4.03
2022-11-05T08:48:53.579Z,3.72
2022-11-05T08:53:56.268Z,3.60
2022-11-05T08:58:58.960Z,3.60
2022-11-05T09:04:01.783Z,4.20
2022-11-05T09:09:04.710Z,4.20
2022-11-05T09:14:07.381Z,5.07
2022-11-05T09:19:10.655Z,6.30
2022-11-05T09:24:13.819Z,5.72
2022-11-05T09:29:16.500Z,6.13
2022-11-05T09:34:19.201Z,5.53
2022-11-05T09:39:21.854Z,6.15
2022-11-05T09:44:27.668Z,7.00
2022-11-05T09:49:40.326Z,7.18
2022-11-05T09:54:43.096Z,6.85
2022-11-05T09:59:48.102Z,7.30
2022-11-05T10:04:55.052Z,7.93
2022-11-05T10:10:01.427Z,7.75
2022-11-05T10:15:23.401Z,7.40
2022-11-05T10:20:32.059Z,8.18
2022-11-05T10:25:38.778Z,8.77
2022-11-05T10:30:41.686Z,9.32
2022-11-05T10:35:51.057Z,8.40
2022-11-05T10:40:56.212Z,8.55
2022-11-05T10:46:12.318Z,7.90
2022-11-05T10:51:15.270Z,8.20
2022-11-05T10:56:38.700Z,8.30
2022-11-05T11:01:41.609Z,8.90
2022-11-05T11:06:50.028Z,8.70
2022-11-05T11:12:00.829Z,9.20
2022-11-05T11:17:29.334Z,9.77
2022-11-05T11:22:32.031Z,10.32
2022-11-05T11:27:35.072Z,10.30
2022-11-05T11:32:39.886Z,9.80
2022-11-05T11:37:42.692Z,10.07
2022-11-05T11:42:54.527Z,9.43
2022-11-05T11:47:58.295Z,11.02
2022-11-05T11:53:36.760Z,11.10
2022-11-05T11:58:50.877Z,10.45
2022-11-05T12:04:30.848Z,10.68
2022-11-05T12:09:39.478Z,9.65
2022-11-05T12:14:53.707Z,9.05
2022-11-05T12:20:12.039Z,7.20
2022-11-05T12:25:26.523Z,7.63
2022-11-05T12:30:35.120Z,7.55
2022-11-05T12:35:57.400Z,8.35
2022-11-05T12:41:21.917Z,8.13
2022-11-05T12:46:49.211Z,8.40
2022-11-05T12:51:51.816Z,7.45
2022-11-05T12:57:03.968Z,7.70
2022-11-05T13:02:36.880Z,8.77
2022-11-05T13:07:42.364Z,8.57
2022-11-05T13:12:46.997Z,8.23
2022-11-05T13:17:52.684Z,7.82
2022-11-05T13:23:21.489Z,9.10
2022-11-05T13:28:34.712Z,8.75
2022-11-05T13:33:39.967Z,9.32
2022-11-05T13:39:00.644Z,8.85
2022-11-05T13:44:32.880Z,8.52
2022-11-05T13:49:50.822Z,7.38
2022-11-05T13:55:02.650Z,8.38
2022-11-05T14:00:12.120Z,9.07
2022-11-05T14:05:44.318Z,8.27
2022-11-05T14:11:02.809Z,8.05
2022-11-05T14:16:05.793Z,8.43
2022-11-05T14:21:27.217Z,8.13
2022-11-05T14:26:33.506Z,8.20
2022-11-05T14:32:11.543Z,8.52
2022-11-05T14:37:27.643Z,8.23
2022-11-05T14:42:31.353Z,8.02
2022-11-05T14:47:42.528Z,7.65
2022-11-05T14:52:57.283Z,7.82
2022-11-05T14:57:59.994Z,8.55
2022-11-05T15:03:05.738Z,7.50
2022-11-05T15:08:26.747Z,7.85
2022-11-05T15:13:33.466Z,7.38
2022-11-05T15:18:41.288Z,7.28
2022-11-05T15:23:45.456Z,6.80
2022-11-05T15:28:50.609Z,6.77
2022-11-05T15:34:15.423Z,6.38
2022-11-05T15:39:30.113Z,5.82
2022-11-05T15:49:37.898Z,5.22
2022-11-05T15:54:41.340Z,6.47
2022-11-05T15:59:46.802Z,6.47
2022-11-05T16:04:49.909Z,6.75
2022-11-05T16:09:57.077Z,6.30
2022-11-05T16:15:17.268Z,7.28
2022-11-05T16:20:28.121Z,6.80
2022-11-05T16:25:40.652Z,6.93
2022-11-05T16:30:55.459Z,6.13
2022-11-05T16:35:58.177Z,6.03
2022-11-05T16:41:00.862Z,5.70
2022-11-05T16:46:03.540Z,6.38
2022-11-05T16:51:06.251Z,6.00
2022-11-05T16:56:14.778Z,6.20
2022-11-05T17:01:22.348Z,5.30
2022-11-05T17:06:25.013Z,5.50
2022-11-05T17:11:27.654Z,5.05
2022-11-05T17:16:30.715Z,6.00
2022-11-05T17:21:33.409Z,5.72
2022-11-05T17:26:36.458Z,5.57
2022-11-05T17:31:42.633Z,6.05
2022-11-05T17:36:45.527Z,5.78
2022-11-05T17:41:48.307Z,7.10
2022-11-05T17:46:51.590Z,6.43
2022-11-05T17:51:54.256Z,5.93
2022-11-05T17:56:56.897Z,5.15
2022-11-05T18:01:59.732Z,4.28
2022-11-05T18:07:02.717Z,5.13
2022-11-05T18:12:05.806Z,4.65
2022-11-05T18:17:09.010Z,4.78
2022-11-05T18:22:11.852Z,4.82
2022-11-05T18:27:14.674Z,4.43
2022-11-05T18:32:17.584Z,4.45
2022-11-05T18:37:20.691Z,4.20
2022-11-05T18:42:23.512Z,3.85
2022-11-05T18:47:26.151Z,4.60
2022-11-05T18:52:31.894Z,4.20
2022-11-05T18:57:35.193Z,4.38
2022-11-05T19:02:38.228Z,3.95
2022-11-05T19:07:41.474Z,4.60
2022-11-05T19:12:44.172Z,4.65
2022-11-05T19:17:46.913Z,4.82
2022-11-05T19:22:49.573Z,4.78
2022-11-05T19:27:52.297Z,5.10
2022-11-05T19:32:54.984Z,5.05
2022-11-05T19:37:57.601Z,5.40
2022-11-05T19:43:00.344Z,5.63
2022-11-05T19:48:02.969Z,5.40
2022-11-05T19:53:06.419Z,5.65
2022-11-05T19:58:09.557Z,5.95
2022-11-05T20:03:12.907Z,6.20
2022-11-05T20:08:15.763Z,6.07
2022-11-05T20:13:20.076Z,6.68
2022-11-05T20:18:23.062Z,6.47
2022-11-05T20:23:25.725Z,5.97
2022-11-05T20:28:28.687Z,6.10
2022-11-05T20:33:31.343Z,5.85
2022-11-05T20:38:34.171Z,6.50
2022-11-05T20:43:38.396Z,5.65
2022-11-05T20:48:41.568Z,6.07
2022-11-05T20:53:44.600Z,6.10
2022-11-05T20:58:47.721Z,6.03
2022-11-05T21:03:50.527Z,6.03
2022-11-05T21:08:54.255Z,6.20
2022-11-05T21:13:56.920Z,6.57
2022-11-05T21:18:59.706Z,6.43
2022-11-05T21:24:02.549Z,6.13
2022-11-05T21:29:05.329Z,6.60
2022-11-05T21:34:08.575Z,6.50
2022-11-05T21:39:13.690Z,6.35
2022-11-05T21:44:16.703Z,6.65
2022-11-05T21:49:19.648Z,7.45
2022-11-05T21:54:40.646Z,6.97
2022-11-05T21:59:49.330Z,6.43
2022-11-05T22:04:54.506Z,6.78
2022-11-05T22:09:59.059Z,6.63
2022-11-05T22:15:02.768Z,6.97
2022-11-05T22:20:06.797Z,6.75
2022-11-05T22:25:09.825Z,7.10
2022-11-05T22:30:13.744Z,6.70
2022-11-05T22:35:16.443Z,7.72
2022-11-05T22:40:22.227Z,7.82
2022-11-05T22:45:26.700Z,8.13
2022-11-05T22:50:29.391Z,9.07
2022-11-05T22:55:32.142Z,9.80
2022-11-05T23:00:36.952Z,8.45
2022-11-05T23:11:00.912Z,7.55
2022-11-05T23:16:22.121Z,8.00
2022-11-05T23:21:43.279Z,7.95
2022-11-05T23:26:52.196Z,6.90
2022-11-05T23:32:13.509Z,8.35
2022-11-05T23:37:34.892Z,7.80
2022-11-05T23:42:56.182Z,6.82
2022-11-05T23:48:17.245Z,7.18
2022-11-05T23:53:20.295Z,6.22
2022-11-05T23:58:22.938Z,6.28
